createdAt,value
2022-11-16T00:02:12.404Z,37.05
2022-11-16T00:04:40.644Z,34.30
2022-11-16T00:07:11.203Z,37.25
2022-11-16T00:09:39.342Z,35.05
2022-11-16T00:12:11.022Z,35.40
2022-11-16T00:14:39.017Z,34.00
2022-11-16T00:17:07.447Z,37.67
2022-11-16T00:19:35.506Z,36.08
2022-11-16T00:22:03.514Z,40.05
2022-11-16T00:24:33.092Z,38.97
2022-11-16T00:27:01.127Z,42.10
2022-11-16T00:29:29.257Z,37.80
2022-11-16T00:31:57.348Z,37.15
2022-11-16T00:34:26.110Z,37.90
2022-11-16T00:36:54.187Z,40.90
2022-11-16T00:39:22.345Z,41.25
2022-11-16T00:41:51.839Z,42.58
2022-11-16T00:44:19.958Z,44.13
2022-11-16T00:46:48.059Z,40.45
2022-11-16T00:49:16.351Z,43.28
2022-11-16T00:51:44.378Z,40.35
2022-11-16T00:54:12.471Z,40.53
2022-11-16T00:56:40.505Z,39.10
2022-11-16T00:59:09.924Z,46.33
2022-11-16T01:01:38.213Z,39.47
2022-11-16T01:04:06.479Z,39.42
2022-11-16T01:06:34.598Z,41.92
2022-11-16T01:09:02.982Z,45.47
2022-11-16T01:11:48.375Z,43.65
2022-11-16T01:16:45.945Z,51.50
2022-11-16T01:19:14.172Z,43.78
2022-11-16T01:21:42.176Z,40.40
2022-11-16T01:24:10.475Z,50.33
2022-11-16T01:26:38.532Z,39.38
2022-11-16T01:29:06.616Z,39.67
2022-11-16T01:31:36.075Z,41.03
2022-11-16T01:34:04.293Z,43.95
2022-11-16T01:36:32.286Z,43.53
2022-11-16T01:39:00.317Z,43.22
2022-11-16T01:41:28.480Z,51.95
2022-11-16T01:43:59.267Z,46.83
2022-11-16T01:46:28.459Z,49.22
2022-11-16T01:49:03.159Z,54.13
2022-11-16T01:51:32.549Z,51.20
2022-11-16T01:54:02.693Z,53.53
2022-11-16T01:56:34.167Z,51.08
2022-11-16T01:59:02.256Z,52.55
2022-11-16T02:01:30.396Z,55.25
2022-11-16T02:04:00.011Z,51.25
2022-11-16T02:06:43.304Z,45.70
2022-11-16T02:09:53.385Z,50.55
2022-11-16T02:12:50.213Z,61.75
2022-11-16T02:15:25.980Z,57.45
2022-11-16T02:18:05.226Z,47.33
2022-11-16T02:20:47.260Z,59.75
2022-11-16T02:23:52.775Z,62.50
2022-11-16T02:26:40.732Z,45.17
2022-11-16T02:29:22.074Z,40.95
2022-11-16T02:31:55.541Z,40.40
2022-11-16T02:34:25.498Z,40.58
2022-11-16T02:36:56.850Z,49.95
2022-11-16T02:39:29.438Z,45.30
2022-11-16T02:42:00.804Z,45.00
2022-11-16T02:44:34.394Z,57.30
2022-11-16T02:47:06.303Z,45.92
2022-11-16T02:49:38.097Z,45.22
2022-11-16T02:52:06.597Z,59.20
2022-11-16T02:54:34.653Z,48.53
2022-11-16T02:57:30.165Z,45.88
2022-11-16T03:00:01.796Z,47.58
2022-11-16T03:02:37.097Z,44.88
2022-11-16T03:05:10.783Z,37.70
2022-11-16T03:07:45.804Z,51.28
2022-11-16T03:13:03.669Z,40.30
2022-11-16T03:15:37.586Z,43.60
2022-11-16T03:18:08.485Z,39.25
2022-11-16T03:20:40.004Z,45.33
2022-11-16T03:23:11.465Z,38.53
2022-11-16T03:25:45.269Z,34.28
2022-11-16T03:28:18.657Z,39.72
2022-11-16T03:30:52.771Z,38.22
2022-11-16T03:33:25.244Z,35.87
2022-11-16T03:36:00.410Z,39.45
2022-11-16T03:38:29.758Z,38.80
2022-11-16T03:41:01.116Z,40.50
2022-11-16T03:43:29.492Z,39.25
2022-11-16T03:45:59.146Z,36.10
2022-11-16T03:48:27.413Z,38.88
2022-11-16T03:50:55.423Z,33.95
2022-11-16T03:53:23.501Z,37.70
2022-11-16T03:55:51.476Z,38.30
2022-11-16T03:58:19.693Z,35.65
2022-11-16T04:00:47.838Z,34.90
2022-11-16T04:03:17.361Z,38.22
2022-11-16T04:06:03.040Z,40.97
2022-11-16T04:08:48.546Z,47.20
2022-11-16T04:11:37.950Z,39.63
2022-11-16T04:14:23.744Z,43.58
2022-11-16T04:17:09.153Z,38.95
2022-11-16T04:23:01.018Z,39.97
2022-11-16T04:25:33.521Z,40.28
2022-11-16T04:28:16.555Z,33.90
2022-11-16T04:31:04.454Z,35.42
2022-11-16T04:33:50.525Z,40.00
2022-11-16T04:36:48.981Z,34.63
2022-11-16T04:39:17.028Z,44.28
2022-11-16T04:42:02.431Z,51.75
2022-11-16T04:47:17.524Z,52.40
2022-11-16T04:49:45.584Z,39.85
2022-11-16T04:52:15.016Z,39.40
2022-11-16T04:54:43.067Z,47.22
2022-11-16T04:57:11.088Z,43.30
2022-11-16T04:59:39.077Z,40.60
2022-11-16T05:02:10.003Z,40.15
2022-11-16T05:04:38.789Z,37.65
2022-11-16T05:07:10.978Z,36.15
2022-11-16T05:09:43.119Z,34.35
2022-11-16T05:12:12.001Z,36.67
2022-11-16T05:14:39.983Z,40.60
2022-11-16T05:17:08.141Z,44.65
2022-11-16T05:19:53.833Z,37.97
2022-11-16T05:22:22.042Z,35.15
2022-11-16T05:24:51.544Z,43.88
2022-11-16T05:27:21.270Z,39.80
2022-11-16T05:29:50.192Z,37.08
2022-11-16T05:32:19.289Z,38.90
2022-11-16T05:34:49.448Z,35.47
2022-11-16T05:37:18.323Z,36.63
2022-11-16T05:39:46.469Z,37.05
2022-11-16T05:42:15.936Z,36.13
2022-11-16T05:44:44.011Z,46.92
2022-11-16T05:47:12.031Z,42.70
2022-11-16T05:49:40.152Z,37.83
2022-11-16T05:52:08.210Z,83.97
2022-11-16T05:54:36.323Z,49.60
2022-11-16T05:57:04.668Z,33.28
2022-11-16T05:59:34.125Z,38.17
2022-11-16T06:02:04.034Z,34.72
2022-11-16T06:04:32.119Z,33.65
2022-11-16T06:07:00.196Z,32.38
2022-11-16T06:09:28.319Z,33.33
2022-11-16T06:11:56.393Z,32.53
2022-11-16T06:14:24.662Z,31.75
2022-11-16T06:16:54.079Z,30.17
2022-11-16T06:19:22.245Z,31.80
2022-11-16T06:21:50.253Z,33.38
2022-11-16T06:24:18.550Z,30.45
2022-11-16T06:26:47.244Z,33.28
2022-11-16T06:29:15.339Z,31.30
2022-11-16T06:31:43.379Z,27.70
2022-11-16T06:34:12.745Z,28.23
2022-11-16T06:36:40.759Z,32.10
2022-11-16T06:39:08.863Z,31.60
2022-11-16T06:41:41.217Z,29.05
2022-11-16T06:44:09.749Z,27.80
2022-11-16T06:46:37.766Z,30.83
2022-11-16T06:49:05.892Z,29.50
2022-11-16T06:51:35.307Z,31.55
2022-11-16T06:54:03.404Z,31.85
2022-11-16T06:56:31.436Z,31.65
2022-11-16T06:58:59.419Z,33.25
2022-11-16T07:01:27.778Z,37.30
2022-11-16T07:03:55.842Z,33.70
2022-11-16T07:06:23.915Z,32.35
2022-11-16T07:08:53.474Z,39.95
2022-11-16T07:11:21.519Z,41.70
2022-11-16T07:13:49.623Z,45.30
2022-11-16T07:16:17.749Z,40.30
2022-11-16T07:18:45.758Z,36.60
2022-11-16T07:21:15.781Z,36.92
2022-11-16T07:23:44.183Z,42.33
2022-11-16T07:26:13.672Z,35.95
2022-11-16T07:28:47.767Z,37.03
2022-11-16T07:31:16.749Z,34.25
2022-11-16T07:33:44.814Z,38.35
2022-11-16T07:36:14.930Z,38.15
2022-11-16T07:38:43.144Z,38.28
2022-11-16T07:41:14.470Z,40.85
2022-11-16T07:43:44.374Z,39.92
2022-11-16T07:49:09.816Z,36.72
2022-11-16T07:51:39.406Z,42.25
2022-11-16T07:54:07.508Z,36.70
2022-11-16T07:56:38.161Z,39.10
2022-11-16T07:59:06.754Z,38.50
2022-11-16T08:01:35.150Z,39.30
2022-11-16T08:04:03.306Z,38.30
2022-11-16T08:06:32.971Z,40.25
2022-11-16T08:09:00.982Z,42.95
2022-11-16T08:11:29.075Z,38.10
2022-11-16T08:13:58.496Z,36.13
2022-11-16T08:16:26.502Z,37.95
2022-11-16T08:18:54.584Z,38.10
2022-11-16T08:21:22.654Z,34.28
2022-11-16T08:23:55.211Z,33.72
2022-11-16T08:26:26.092Z,32.15
2022-11-16T08:28:56.585Z,30.40
2022-11-16T08:31:28.089Z,29.77
2022-11-16T08:33:56.672Z,27.15
2022-11-16T08:36:24.936Z,28.92
2022-11-16T08:38:53.956Z,28.75
2022-11-16T08:41:22.536Z,29.70
2022-11-16T08:43:53.431Z,28.17
2022-11-16T08:46:22.084Z,29.63
2022-11-16T08:48:55.657Z,29.95
2022-11-16T08:51:24.185Z,29.50
2022-11-16T08:53:57.006Z,27.67
2022-11-16T08:56:26.323Z,27.30
2022-11-16T08:58:58.381Z,27.27
2022-11-16T09:01:29.448Z,27.70
2022-11-16T09:03:59.226Z,27.25
2022-11-16T09:06:28.966Z,27.23
2022-11-16T09:08:57.154Z,28.27
2022-11-16T09:11:26.547Z,36.00
2022-11-16T09:13:56.628Z,32.25
2022-11-16T09:16:25.595Z,28.27
2022-11-16T09:18:53.681Z,27.63
2022-11-16T09:21:25.197Z,27.95
2022-11-16T09:23:54.891Z,27.75
2022-11-16T09:26:24.042Z,26.17
2022-11-16T09:28:56.944Z,26.50
2022-11-16T09:31:27.476Z,28.25
2022-11-16T09:33:58.283Z,26.55
2022-11-16T09:36:29.482Z,27.25
2022-11-16T09:42:01.267Z,26.30
2022-11-16T09:44:50.279Z,26.40
2022-11-16T09:47:22.129Z,28.10
2022-11-16T09:49:58.135Z,27.05
2022-11-16T09:52:35.098Z,26.23
2022-11-16T09:55:16.567Z,30.88
2022-11-16T09:57:45.452Z,29.65
2022-11-16T10:00:19.635Z,29.48
2022-11-16T10:02:53.146Z,31.25
2022-11-16T10:05:23.762Z,32.60
2022-11-16T10:08:00.256Z,33.78
2022-11-16T10:10:36.075Z,34.92
2022-11-16T10:13:16.026Z,34.10
2022-11-16T10:16:00.354Z,31.98
2022-11-16T10:18:46.219Z,30.15
2022-11-16T10:21:39.723Z,32.08
2022-11-16T10:24:34.357Z,28.83
2022-11-16T10:27:25.742Z,31.30
2022-11-16T10:30:03.460Z,32.05
2022-11-16T10:32:33.252Z,33.38
2022-11-16T10:35:09.202Z,31.42
2022-11-16T10:37:40.636Z,34.17
2022-11-16T10:40:23.288Z,34.33
2022-11-16T10:43:06.701Z,30.80
2022-11-16T10:45:40.320Z,30.35
2022-11-16T10:48:30.805Z,32.25
2022-11-16T10:50:59.028Z,33.35
2022-11-16T10:53:29.345Z,32.50
2022-11-16T10:56:12.719Z,33.08
2022-11-16T10:58:52.334Z,32.25
2022-11-16T11:01:36.462Z,38.85
2022-11-16T11:04:26.283Z,35.80
2022-11-16T11:06:56.033Z,34.17
2022-11-16T11:09:31.507Z,33.08
2022-11-16T11:12:20.775Z,31.10
2022-11-16T11:15:05.795Z,31.52
2022-11-16T11:17:36.291Z,30.13
2022-11-16T11:20:07.407Z,28.98
2022-11-16T11:22:43.022Z,32.05
2022-11-16T11:25:21.694Z,30.90
2022-11-16T11:27:52.049Z,31.95
2022-11-16T11:30:21.700Z,35.78
2022-11-16T11:32:50.268Z,31.35
2022-11-16T11:35:26.312Z,32.13
2022-11-16T11:37:57.719Z,33.42
2022-11-16T11:40:27.266Z,33.00
2022-11-16T11:43:07.235Z,34.60
2022-11-16T11:45:44.231Z,36.15
2022-11-16T11:48:26.386Z,32.03
2022-11-16T11:50:56.282Z,33.97
2022-11-16T11:53:42.063Z,35.85
2022-11-16T11:56:13.033Z,34.67
2022-11-16T11:58:43.727Z,35.38
2022-11-16T12:01:50.337Z,35.97
2022-11-16T12:05:08.485Z,35.13
2022-11-16T12:07:58.557Z,40.35
2022-11-16T12:10:32.912Z,37.10
2022-11-16T12:13:22.697Z,36.17
2022-11-16T12:16:02.811Z,36.67
2022-11-16T12:18:43.621Z,41.88
2022-11-16T12:21:14.601Z,38.92
2022-11-16T12:23:59.361Z,38.33
2022-11-16T12:26:38.394Z,36.33
2022-11-16T12:29:22.181Z,37.22
2022-11-16T12:32:03.700Z,36.40
2022-11-16T12:34:45.315Z,36.30
2022-11-16T12:37:21.686Z,34.03
2022-11-16T12:40:09.601Z,36.80
2022-11-16T12:42:47.167Z,31.92
2022-11-16T12:45:29.001Z,32.72
2022-11-16T12:48:19.440Z,34.63
2022-11-16T12:50:56.872Z,34.17
2022-11-16T12:53:50.637Z,36.38
2022-11-16T12:56:27.134Z,35.72
2022-11-16T12:59:13.349Z,35.33
2022-11-16T13:01:46.090Z,39.38
2022-11-16T13:04:19.813Z,41.05
2022-11-16T13:06:53.617Z,39.45
2022-11-16T13:09:25.417Z,57.22
2022-11-16T13:11:57.555Z,52.40
2022-11-16T13:14:31.070Z,41.10
2022-11-16T13:17:02.428Z,39.63
2022-11-16T13:19:32.464Z,37.30
2022-11-16T13:22:05.761Z,37.08
2022-11-16T13:24:51.240Z,36.80
2022-11-16T13:27:33.099Z,43.67
2022-11-16T13:30:06.793Z,41.88
2022-11-16T13:32:50.442Z,46.53
2022-11-16T13:35:21.037Z,46.42
2022-11-16T13:37:49.914Z,42.33
2022-11-16T13:40:29.638Z,56.95
2022-11-16T13:43:06.028Z,41.65
2022-11-16T13:45:37.880Z,45.05
2022-11-16T13:48:18.155Z,50.45
2022-11-16T13:50:53.075Z,48.10
2022-11-16T13:56:16.056Z,47.88
2022-11-16T13:58:48.427Z,65.90
2022-11-16T14:01:18.058Z,51.50
2022-11-16T14:03:47.334Z,57.33
2022-11-16T14:07:00.101Z,58.88
2022-11-16T14:09:45.735Z,43.92
2022-11-16T14:12:56.784Z,40.42
2022-11-16T14:15:33.679Z,34.53
2022-11-16T14:18:21.951Z,34.40
2022-11-16T14:20:58.165Z,36.60
2022-11-16T14:23:58.346Z,39.90
2022-11-16T14:26:37.921Z,46.20
2022-11-16T14:29:20.189Z,36.92
2022-11-16T14:31:52.319Z,37.35
2022-11-16T14:34:23.501Z,36.85
2022-11-16T14:36:52.232Z,38.90
2022-11-16T14:39:37.348Z,36.47
2022-11-16T14:42:08.516Z,43.88
2022-11-16T14:44:40.021Z,42.67
2022-11-16T14:47:21.801Z,42.67
2022-11-16T14:49:50.332Z,41.38
2022-11-16T14:52:20.244Z,44.97
2022-11-16T14:54:56.777Z,44.72
2022-11-16T14:57:25.415Z,44.65
2022-11-16T15:00:09.246Z,47.42
2022-11-16T15:02:37.952Z,52.25
2022-11-16T15:05:07.183Z,53.13
2022-11-16T15:07:35.215Z,48.17
2022-11-16T15:10:05.352Z,60.33
2022-11-16T15:12:44.108Z,65.35
2022-11-16T15:15:17.306Z,62.17
2022-11-16T15:17:47.266Z,76.97
2022-11-16T15:20:20.412Z,63.28
2022-11-16T15:22:52.063Z,53.35
2022-11-16T15:25:32.612Z,46.00
2022-11-16T15:28:02.561Z,42.78
2022-11-16T15:30:34.375Z,41.95
2022-11-16T15:33:04.925Z,46.80
2022-11-16T15:35:35.033Z,49.22
2022-11-16T15:38:04.897Z,47.55
2022-11-16T15:40:35.427Z,50.13
2022-11-16T15:43:07.056Z,50.92
2022-11-16T15:45:35.815Z,49.05
2022-11-16T15:48:05.002Z,53.53
2022-11-16T15:50:33.186Z,53.70
2022-11-16T15:53:01.230Z,55.55
2022-11-16T15:55:36.874Z,54.00
2022-11-16T15:58:08.581Z,52.88
2022-11-16T16:00:38.334Z,54.10
2022-11-16T16:03:17.554Z,50.17
2022-11-16T16:05:45.704Z,47.47
2022-11-16T16:08:34.880Z,52.22
2022-11-16T16:11:10.434Z,49.58
2022-11-16T16:13:40.592Z,51.55
2022-11-16T16:16:27.409Z,56.80
2022-11-16T16:18:58.223Z,67.07
2022-11-16T16:21:29.382Z,61.20
2022-11-16T16:24:00.614Z,59.05
2022-11-16T16:26:30.105Z,51.80
2022-11-16T16:28:58.150Z,54.10
2022-11-16T16:31:29.210Z,65.93
2022-11-16T16:33:59.535Z,72.80
2022-11-16T16:36:27.653Z,68.82
2022-11-16T16:38:57.021Z,70.30
2022-11-16T16:41:25.158Z,75.82
2022-11-16T16:43:54.783Z,71.05
2022-11-16T16:46:22.878Z,65.45
2022-11-16T16:48:50.948Z,62.97
2022-11-16T16:51:18.998Z,60.20
2022-11-16T16:53:46.995Z,65.30
2022-11-16T16:56:16.623Z,63.97
2022-11-16T16:58:44.674Z,61.30
2022-11-16T17:01:14.492Z,57.80
2022-11-16T17:03:42.646Z,68.22
2022-11-16T17:06:10.788Z,66.63
2022-11-16T17:08:39.399Z,62.58
2022-11-16T17:11:07.526Z,58.25
2022-11-16T17:13:35.981Z,59.83
2022-11-16T17:16:06.294Z,56.88
2022-11-16T17:18:35.742Z,59.53
2022-11-16T17:21:08.291Z,62.72
2022-11-16T17:23:37.652Z,58.67
2022-11-16T17:26:06.666Z,58.00
2022-11-16T17:28:35.406Z,58.72
2022-11-16T17:31:04.151Z,58.55
2022-11-16T17:33:36.058Z,53.83
2022-11-16T17:36:04.916Z,58.75
2022-11-16T17:38:33.249Z,52.88
2022-11-16T17:41:06.660Z,51.05
2022-11-16T17:43:35.601Z,56.58
2022-11-16T17:46:08.536Z,55.85
2022-11-16T17:48:38.993Z,53.50
2022-11-16T17:51:08.786Z,49.88
2022-11-16T17:53:37.884Z,51.47
2022-11-16T17:56:07.748Z,53.97
2022-11-16T17:58:36.098Z,53.05
2022-11-16T18:01:04.526Z,53.30
2022-11-16T18:03:33.283Z,52.10
2022-11-16T18:06:08.572Z,55.80
2022-11-16T18:11:06.820Z,52.28
2022-11-16T18:13:35.564Z,56.70
2022-11-16T18:16:05.753Z,55.67
2022-11-16T18:18:34.084Z,55.80
2022-11-16T18:21:02.554Z,53.28
2022-11-16T18:23:32.669Z,60.70
2022-11-16T18:26:01.008Z,60.08
2022-11-16T18:28:29.090Z,59.47
2022-11-16T18:31:04.178Z,60.30
2022-11-16T18:33:32.750Z,57.15
2022-11-16T18:36:01.166Z,60.33
2022-11-16T18:38:29.200Z,56.85
2022-11-16T18:41:15.422Z,55.50
2022-11-16T18:43:48.517Z,56.03
2022-11-16T18:46:16.608Z,59.50
2022-11-16T18:48:44.615Z,56.03
2022-11-16T18:51:12.769Z,54.17
2022-11-16T18:53:40.854Z,54.65
2022-11-16T18:56:11.867Z,56.40
2022-11-16T18:58:55.686Z,56.92
2022-11-16T19:01:25.809Z,57.85
2022-11-16T19:03:54.732Z,57.78
2022-11-16T19:06:23.723Z,53.80
2022-11-16T19:08:56.451Z,55.97
2022-11-16T19:11:27.981Z,57.38
2022-11-16T19:14:00.100Z,59.15
2022-11-16T19:16:28.253Z,57.17
2022-11-16T19:18:56.758Z,55.30
2022-11-16T19:21:25.225Z,57.63
2022-11-16T19:23:54.799Z,57.72
2022-11-16T19:26:26.026Z,56.38
2022-11-16T19:28:54.997Z,56.50
2022-11-16T19:31:24.758Z,58.67
2022-11-16T19:33:56.135Z,56.65
2022-11-16T19:36:24.703Z,58.33
2022-11-16T19:38:52.955Z,60.00
2022-11-16T19:41:22.606Z,60.33
2022-11-16T19:43:57.194Z,60.83
2022-11-16T19:46:25.793Z,62.33
2022-11-16T19:48:54.592Z,62.75
2022-11-16T19:51:24.374Z,63.75
2022-11-16T19:53:52.584Z,63.33
2022-11-16T19:56:22.911Z,60.38
2022-11-16T19:58:52.908Z,62.83
2022-11-16T20:01:23.152Z,62.95
2022-11-16T20:03:51.392Z,61.50
2022-11-16T20:06:21.148Z,59.95
2022-11-16T20:08:50.565Z,62.45
2022-11-16T20:11:20.853Z,61.38
2022-11-16T20:13:49.356Z,61.17
2022-11-16T20:16:20.541Z,61.22
2022-11-16T20:18:49.298Z,61.38
2022-11-16T20:21:22.410Z,61.72
2022-11-16T20:23:51.633Z,64.63
2022-11-16T20:26:20.835Z,63.10
2022-11-16T20:28:51.064Z,61.72
2022-11-16T20:31:21.939Z,63.22
2022-11-16T20:33:54.413Z,61.30
2022-11-16T20:36:23.785Z,60.40
2022-11-16T20:38:52.486Z,60.53
2022-11-16T20:41:22.449Z,54.80
2022-11-16T20:43:52.492Z,58.50
2022-11-16T20:46:23.768Z,60.35
2022-11-16T20:48:52.086Z,58.35
2022-11-16T20:51:21.413Z,53.97
2022-11-16T20:53:50.924Z,57.47
2022-11-16T20:56:20.239Z,56.55
2022-11-16T20:58:48.559Z,55.97
2022-11-16T21:01:18.752Z,57.25
2022-11-16T21:03:48.193Z,58.00
2022-11-16T21:06:16.641Z,61.60
2022-11-16T21:08:44.895Z,58.25
2022-11-16T21:11:13.493Z,57.95
2022-11-16T21:13:58.864Z,57.10
2022-11-16T21:18:56.240Z,58.65
2022-11-16T21:21:25.341Z,61.95
2022-11-16T21:23:55.006Z,59.75
2022-11-16T21:26:24.764Z,58.30
2022-11-16T21:28:52.906Z,61.00
2022-11-16T21:31:23.170Z,63.30
2022-11-16T21:33:51.213Z,60.58
2022-11-16T21:36:22.373Z,64.78
2022-11-16T21:38:50.801Z,64.18
2022-11-16T21:41:20.473Z,61.40
2022-11-16T21:43:48.821Z,61.97
2022-11-16T21:46:18.667Z,64.32
2022-11-16T21:48:48.118Z,64.88
2022-11-16T21:51:18.359Z,67.68
2022-11-16T21:53:50.657Z,69.50
2022-11-16T21:56:20.141Z,65.32
2022-11-16T21:58:49.982Z,63.65
2022-11-16T22:01:18.193Z,65.25
2022-11-16T22:03:46.596Z,65.93
2022-11-16T22:06:34.584Z,63.22
2022-11-16T22:09:04.137Z,76.45
2022-11-16T22:11:32.137Z,67.40
2022-11-16T22:14:00.282Z,68.25
2022-11-16T22:16:28.362Z,62.35
2022-11-16T22:18:56.381Z,66.95
2022-11-16T22:21:24.482Z,68.00
2022-11-16T22:23:52.537Z,67.88
2022-11-16T22:26:22.079Z,71.32
2022-11-16T22:28:50.081Z,66.65
2022-11-16T22:31:18.120Z,62.70
2022-11-16T22:33:46.115Z,70.20
2022-11-16T22:36:15.081Z,67.60
2022-11-16T22:38:43.060Z,74.72
2022-11-16T22:41:11.233Z,65.32
2022-11-16T22:43:40.715Z,72.03
2022-11-16T22:46:09.033Z,72.45
2022-11-16T22:48:38.912Z,77.65
2022-11-16T22:51:08.985Z,69.13
2022-11-16T22:53:37.267Z,69.03
2022-11-16T22:56:07.679Z,72.22
2022-11-16T22:58:36.072Z,74.43
2022-11-16T23:01:07.496Z,68.07
2022-11-16T23:03:36.004Z,73.57
2022-11-16T23:06:05.425Z,70.38
2022-11-16T23:08:34.347Z,70.13
2022-11-16T23:11:20.537Z,75.00
2022-11-16T23:14:06.375Z,65.90
2022-11-16T23:16:36.267Z,67.50
2022-11-16T23:19:24.368Z,65.80
2022-11-16T23:22:09.552Z,66.55
2022-11-16T23:24:55.047Z,65.97
2022-11-16T23:27:31.944Z,70.72
2022-11-16T23:30:01.146Z,77.30
2022-11-16T23:32:31.048Z,77.85
2022-11-16T23:34:59.263Z,73.90
2022-11-16T23:37:27.363Z,72.03
2022-11-16T23:39:55.392Z,76.78
2022-11-16T23:42:40.602Z,70.07
2022-11-16T23:45:09.029Z,71.63
2022-11-16T23:47:38.401Z,72.10
2022-11-16T23:50:06.997Z,64.20
2022-11-16T23:52:35.042Z,71.47
2022-11-16T23:55:03.046Z,68.60
2022-11-16T23:57:31.142Z,69.45
2022-11-16T23:59:59.104Z,66.05
